createdAt,value
2022-07-29T00:00:02.253Z,23.44
2022-07-29T00:02:29.348Z,23.43
2022-07-29T00:04:56.253Z,23.39
2022-07-29T00:07:22.920Z,23.54
2022-07-29T00:09:51.518Z,23.53
2022-07-29T00:12:21.397Z,23.64
2022-07-29T00:14:56.734Z,23.34
2022-07-29T00:17:24.547Z,23.34
2022-07-29T00:19:51.608Z,23.13
2022-07-29T00:22:18.571Z,23.11
2022-07-29T00:24:45.191Z,23.50
2022-07-29T00:27:11.747Z,23.11
2022-07-29T00:29:38.598Z,23.20
2022-07-29T00:32:05.408Z,23.08
2022-07-29T00:34:51.007Z,23.21
2022-07-29T00:37:17.587Z,23.18
2022-07-29T00:39:44.441Z,22.99
2022-07-29T00:42:11.599Z,23.12
2022-07-29T00:44:40.190Z,23.23
2022-07-29T00:47:07.969Z,22.99
2022-07-29T00:49:35.897Z,23.05
2022-07-29T00:52:06.273Z,22.77
2022-07-29T00:54:34.103Z,22.68
2022-07-29T00:57:01.575Z,23.05
2022-07-29T00:59:34.819Z,23.01
2022-07-29T01:02:03.822Z,22.78
2022-07-29T01:04:31.863Z,22.83
2022-07-29T01:06:59.599Z,22.85
2022-07-29T01:09:42.041Z,22.90
2022-07-29T01:12:13.940Z,22.51
2022-07-29T01:14:42.672Z,22.57
2022-07-29T01:17:34.653Z,22.56
2022-07-29T01:20:45.765Z,22.56
2022-07-29T01:23:48.846Z,22.78
2022-07-29T01:26:20.490Z,22.47
2022-07-29T01:28:56.763Z,22.62
2022-07-29T01:31:34.743Z,22.56
2022-07-29T01:34:09.577Z,22.25
2022-07-29T01:36:48.073Z,22.57
2022-07-29T01:39:36.090Z,22.55
2022-07-29T01:42:24.584Z,22.38
2022-07-29T01:45:03.021Z,22.21
2022-07-29T01:47:43.775Z,22.10
2022-07-29T01:50:17.271Z,22.13
2022-07-29T01:52:59.566Z,22.29
2022-07-29T01:55:39.727Z,21.82
2022-07-29T01:58:07.899Z,21.96
2022-07-29T02:00:35.575Z,22.03
2022-07-29T02:03:08.385Z,22.22
2022-07-29T02:05:38.575Z,22.04
2022-07-29T02:08:07.041Z,22.00
2022-07-29T02:10:35.607Z,21.82
2022-07-29T02:13:04.680Z,22.06
2022-07-29T02:15:33.973Z,21.84
2022-07-29T02:18:12.670Z,21.78
2022-07-29T02:20:41.051Z,21.61
2022-07-29T02:23:11.579Z,21.72
2022-07-29T02:25:38.804Z,21.81
2022-07-29T02:28:07.702Z,21.90
2022-07-29T02:30:37.753Z,21.88
2022-07-29T02:33:05.967Z,21.87
2022-07-29T02:35:34.843Z,22.08
2022-07-29T02:38:22.045Z,21.87
2022-07-29T02:40:52.183Z,21.95
2022-07-29T02:43:20.363Z,21.99
2022-07-29T02:45:52.570Z,21.80
2022-07-29T02:48:28.592Z,21.86
2022-07-29T02:51:06.055Z,21.88
2022-07-29T02:53:36.480Z,21.97
2022-07-29T02:56:09.081Z,21.85
2022-07-29T02:58:42.214Z,21.81
2022-07-29T03:01:25.150Z,21.95
2022-07-29T03:03:55.399Z,21.86
2022-07-29T03:06:37.729Z,21.88
2022-07-29T03:09:10.462Z,21.67
2022-07-29T03:11:46.432Z,21.72
2022-07-29T03:14:21.491Z,21.73
2022-07-29T03:16:49.978Z,21.68
2022-07-29T03:19:17.905Z,21.50
2022-07-29T03:21:44.420Z,21.62
2022-07-29T03:24:11.248Z,21.61
2022-07-29T03:26:38.133Z,21.68
2022-07-29T03:29:04.670Z,21.62
2022-07-29T03:31:32.124Z,21.80
2022-07-29T03:34:00.324Z,21.67
2022-07-29T03:36:26.956Z,21.76
2022-07-29T03:38:53.863Z,21.78
2022-07-29T03:41:23.870Z,21.52
2022-07-29T03:43:52.603Z,21.53
2022-07-29T03:46:24.952Z,21.43
2022-07-29T03:48:57.449Z,21.23
2022-07-29T03:51:33.060Z,21.43
2022-07-29T03:54:05.012Z,21.49
2022-07-29T03:56:40.669Z,21.21
2022-07-29T03:59:08.162Z,21.38
2022-07-29T04:01:35.812Z,21.55
2022-07-29T04:04:03.574Z,21.24
2022-07-29T04:06:30.246Z,21.41
2022-07-29T04:08:56.768Z,21.40
2022-07-29T04:11:23.665Z,21.47
2022-07-29T04:13:51.329Z,21.38
2022-07-29T04:16:17.927Z,21.39
2022-07-29T04:18:44.541Z,21.46
2022-07-29T04:21:11.069Z,21.35
2022-07-29T04:23:52.832Z,21.42
2022-07-29T04:26:21.923Z,21.53
2022-07-29T04:28:48.521Z,21.60
2022-07-29T04:31:15.173Z,21.56
2022-07-29T04:33:41.788Z,21.49
2022-07-29T04:36:18.821Z,21.52
2022-07-29T04:38:55.010Z,21.53
2022-07-29T04:41:23.109Z,21.50
2022-07-29T04:43:50.117Z,21.47
2022-07-29T04:46:17.036Z,21.46
2022-07-29T04:48:46.155Z,21.34
2022-07-29T04:51:13.089Z,21.33
2022-07-29T04:53:39.671Z,21.18
2022-07-29T04:56:06.430Z,21.07
2022-07-29T04:58:35.666Z,21.08
2022-07-29T05:01:02.305Z,20.95
2022-07-29T05:03:28.988Z,20.92
2022-07-29T05:05:55.503Z,20.85
2022-07-29T05:08:23.995Z,20.77
2022-07-29T05:10:50.841Z,20.62
2022-07-29T05:13:17.358Z,20.64
2022-07-29T05:15:44.144Z,20.55
2022-07-29T05:18:12.697Z,20.61
2022-07-29T05:20:39.244Z,20.74
2022-07-29T05:23:05.842Z,20.56
2022-07-29T05:25:44.251Z,20.53
2022-07-29T05:28:12.603Z,20.18
2022-07-29T05:30:39.277Z,19.84
2022-07-29T05:33:05.856Z,19.65
2022-07-29T05:35:32.476Z,19.46
2022-07-29T05:37:59.026Z,19.38
2022-07-29T05:40:26.215Z,19.43
2022-07-29T05:42:52.802Z,19.32
2022-07-29T05:45:19.377Z,19.32
2022-07-29T05:47:46.547Z,19.51
2022-07-29T05:50:13.334Z,19.49
2022-07-29T05:52:39.932Z,19.26
2022-07-29T05:55:06.873Z,19.42
2022-07-29T05:57:33.621Z,20.02
2022-07-29T06:00:00.302Z,20.01
2022-07-29T06:02:27.594Z,19.79
2022-07-29T06:04:54.790Z,20.08
2022-07-29T06:07:22.069Z,20.30
2022-07-29T06:09:48.805Z,20.16
2022-07-29T06:12:15.501Z,20.07
2022-07-29T06:14:42.252Z,19.97
2022-07-29T06:17:08.869Z,19.93
2022-07-29T06:19:37.245Z,19.85
2022-07-29T06:22:04.294Z,19.80
2022-07-29T06:24:30.856Z,19.64
2022-07-29T06:26:57.820Z,19.46
2022-07-29T06:29:24.606Z,19.48
2022-07-29T06:31:51.692Z,19.47
2022-07-29T06:34:18.583Z,19.52
2022-07-29T06:36:46.139Z,19.56
2022-07-29T06:39:13.182Z,19.59
2022-07-29T06:41:39.910Z,19.80
2022-07-29T06:44:06.501Z,19.71
2022-07-29T06:46:33.763Z,19.70
2022-07-29T06:49:02.543Z,19.84
2022-07-29T06:51:30.516Z,19.91
2022-07-29T06:54:02.145Z,19.80
2022-07-29T06:56:32.551Z,19.71
2022-07-29T06:59:07.153Z,19.76
2022-07-29T07:01:33.822Z,19.91
2022-07-29T07:04:01.349Z,20.09
2022-07-29T07:06:28.510Z,20.01
2022-07-29T07:08:55.103Z,20.09
2022-07-29T07:11:22.354Z,20.02
2022-07-29T07:13:48.905Z,19.90
2022-07-29T07:16:15.835Z,20.06
2022-07-29T07:18:42.511Z,19.90
2022-07-29T07:21:09.158Z,19.81
2022-07-29T07:23:35.747Z,19.71
2022-07-29T07:26:02.499Z,19.79
2022-07-29T07:28:29.068Z,19.75
2022-07-29T07:30:55.886Z,20.03
2022-07-29T07:33:22.427Z,20.12
2022-07-29T07:35:49.258Z,20.22
2022-07-29T07:38:15.855Z,20.41
2022-07-29T07:40:42.810Z,20.40
2022-07-29T07:43:09.463Z,20.49
2022-07-29T07:45:38.469Z,20.48
2022-07-29T07:48:05.949Z,20.51
2022-07-29T07:50:33.375Z,20.46
2022-07-29T07:53:00.505Z,20.51
2022-07-29T07:55:27.688Z,20.44
2022-07-29T07:57:55.350Z,20.57
2022-07-29T08:00:23.668Z,20.53
2022-07-29T08:02:51.332Z,20.45
2022-07-29T08:05:18.275Z,20.47
2022-07-29T08:07:48.130Z,20.25
2022-07-29T08:10:36.493Z,20.25
2022-07-29T08:13:07.339Z,20.45
2022-07-29T08:15:35.055Z,20.22
2022-07-29T08:18:06.537Z,20.28
2022-07-29T08:20:36.697Z,20.16
2022-07-29T08:23:05.700Z,20.48
2022-07-29T08:25:32.952Z,20.46
2022-07-29T08:28:01.585Z,20.62
2022-07-29T08:30:28.499Z,20.49
2022-07-29T08:32:55.976Z,20.73
2022-07-29T08:35:24.603Z,20.66
2022-07-29T08:37:55.011Z,20.79
2022-07-29T08:40:31.844Z,20.77
2022-07-29T08:43:00.796Z,20.76
2022-07-29T08:45:29.461Z,20.64
2022-07-29T08:47:56.480Z,20.75
2022-07-29T08:50:26.744Z,20.94
2022-07-29T08:52:59.909Z,20.61
2022-07-29T08:55:28.638Z,20.57
2022-07-29T08:57:57.518Z,20.40
2022-07-29T09:00:26.188Z,20.67
2022-07-29T09:02:58.362Z,20.99
2022-07-29T09:05:26.769Z,20.92
2022-07-29T09:07:53.551Z,20.95
2022-07-29T09:10:20.577Z,21.03
2022-07-29T09:12:47.471Z,20.90
2022-07-29T09:15:14.078Z,20.73
2022-07-29T09:17:46.509Z,20.82
2022-07-29T09:20:16.334Z,20.82
2022-07-29T09:22:43.050Z,20.96
2022-07-29T09:25:12.677Z,21.08
2022-07-29T09:27:40.061Z,20.87
2022-07-29T09:30:13.369Z,20.96
2022-07-29T09:33:02.277Z,21.14
2022-07-29T09:35:30.062Z,21.26
2022-07-29T09:37:56.998Z,21.39
2022-07-29T09:40:26.409Z,21.32
2022-07-29T09:42:56.514Z,21.22
2022-07-29T09:45:33.604Z,21.20
2022-07-29T09:48:04.023Z,21.07
2022-07-29T09:50:41.073Z,21.12
2022-07-29T09:53:10.355Z,21.06
2022-07-29T09:55:52.092Z,21.07
2022-07-29T09:58:22.203Z,21.23
2022-07-29T10:00:51.035Z,21.07
2022-07-29T10:03:18.435Z,21.23
2022-07-29T10:05:46.601Z,21.39
2022-07-29T10:08:13.754Z,21.61
2022-07-29T10:10:43.534Z,21.61
2022-07-29T10:13:16.370Z,21.67
2022-07-29T10:15:46.372Z,21.78
2022-07-29T10:18:14.630Z,21.78
2022-07-29T10:20:42.422Z,22.01
2022-07-29T10:23:10.543Z,22.17
2022-07-29T10:25:37.851Z,21.98
2022-07-29T10:28:06.598Z,22.32
2022-07-29T10:30:33.507Z,22.44
2022-07-29T10:33:34.086Z,22.49
2022-07-29T10:36:28.505Z,22.40
2022-07-29T10:39:00.258Z,22.36
2022-07-29T10:41:36.407Z,22.55
2022-07-29T10:44:23.855Z,22.91
2022-07-29T10:46:52.075Z,22.90
2022-07-29T10:49:24.390Z,22.94
2022-07-29T10:51:59.875Z,23.04
2022-07-29T10:54:36.465Z,23.05
2022-07-29T10:57:12.599Z,23.15
2022-07-29T10:59:39.399Z,23.17
2022-07-29T11:02:54.434Z,23.08
2022-07-29T11:05:22.198Z,22.91
2022-07-29T11:08:20.418Z,23.11
2022-07-29T11:10:49.130Z,23.12
2022-07-29T11:13:55.683Z,23.34
2022-07-29T11:16:25.145Z,23.36
2022-07-29T11:19:14.781Z,23.41
2022-07-29T11:21:53.466Z,23.49
2022-07-29T11:24:29.185Z,23.69
2022-07-29T11:27:19.607Z,23.78
2022-07-29T11:29:58.620Z,23.31
2022-07-29T11:32:29.416Z,23.24
2022-07-29T11:35:17.644Z,23.31
2022-07-29T11:38:08.026Z,23.48
2022-07-29T11:40:34.714Z,23.39
2022-07-29T11:43:02.596Z,23.21
2022-07-29T11:45:48.077Z,23.44
2022-07-29T11:48:31.602Z,23.81
2022-07-29T11:51:00.045Z,23.48
2022-07-29T11:53:29.099Z,23.32
2022-07-29T11:56:00.378Z,23.65
2022-07-29T11:58:29.298Z,23.78
2022-07-29T12:00:56.470Z,23.72
2022-07-29T12:03:35.249Z,23.64
2022-07-29T12:06:12.363Z,23.77
2022-07-29T12:08:43.848Z,23.69
2022-07-29T12:11:24.803Z,23.98
2022-07-29T12:13:52.791Z,24.15
2022-07-29T12:16:29.395Z,24.00
2022-07-29T12:19:02.251Z,24.16
2022-07-29T12:21:53.953Z,24.33
2022-07-29T12:24:26.903Z,24.29
2022-07-29T12:26:59.397Z,24.23
2022-07-29T12:29:34.969Z,24.60
2022-07-29T12:32:03.431Z,24.82
2022-07-29T12:34:30.742Z,24.93
2022-07-29T12:36:57.707Z,25.07
2022-07-29T12:39:27.413Z,25.10
2022-07-29T12:42:03.950Z,25.36
2022-07-29T12:44:54.987Z,25.26
2022-07-29T12:47:24.431Z,25.39
2022-07-29T12:49:52.015Z,25.64
2022-07-29T12:52:33.923Z,25.67
2022-07-29T12:55:01.783Z,25.84
2022-07-29T12:57:28.696Z,25.79
2022-07-29T13:00:14.111Z,25.81
2022-07-29T13:02:42.594Z,25.71
2022-07-29T13:05:10.549Z,25.92
2022-07-29T13:07:54.121Z,25.74
2022-07-29T13:10:23.904Z,25.58
2022-07-29T13:13:11.440Z,25.45
2022-07-29T13:15:40.652Z,25.52
2022-07-29T13:18:31.065Z,25.33
2022-07-29T13:20:58.451Z,25.56
2022-07-29T13:23:24.967Z,25.68
2022-07-29T13:25:52.407Z,25.72
2022-07-29T13:28:22.521Z,25.70
2022-07-29T13:30:49.106Z,25.83
2022-07-29T13:33:15.675Z,25.73
2022-07-29T13:35:42.196Z,25.82
2022-07-29T13:38:08.817Z,25.77
2022-07-29T13:40:36.359Z,25.62
2022-07-29T13:43:03.119Z,25.36
2022-07-29T13:45:30.799Z,25.78
2022-07-29T13:47:57.403Z,25.64
2022-07-29T13:50:23.993Z,25.65
2022-07-29T13:52:52.738Z,25.36
2022-07-29T13:55:19.480Z,25.30
2022-07-29T13:57:46.211Z,25.27
2022-07-29T14:00:13.770Z,25.14
2022-07-29T14:02:43.796Z,25.45
2022-07-29T14:05:11.091Z,25.31
2022-07-29T14:07:40.172Z,25.37
2022-07-29T14:10:08.116Z,25.68
2022-07-29T14:12:34.749Z,25.53
2022-07-29T14:15:01.715Z,25.32
2022-07-29T14:17:28.314Z,25.21
2022-07-29T14:19:54.881Z,25.60
2022-07-29T14:22:23.056Z,25.55
2022-07-29T14:24:52.796Z,25.61
2022-07-29T14:27:19.786Z,25.51
2022-07-29T14:30:05.043Z,25.45
2022-07-29T14:32:31.624Z,25.81
2022-07-29T14:34:58.278Z,25.83
2022-07-29T14:37:26.803Z,25.67
2022-07-29T14:39:55.256Z,25.85
2022-07-29T14:42:25.376Z,25.90
2022-07-29T14:44:52.493Z,25.79
2022-07-29T14:47:19.130Z,25.73
2022-07-29T14:49:45.655Z,26.11
2022-07-29T14:52:12.187Z,26.31
2022-07-29T14:54:39.023Z,26.73
2022-07-29T14:57:05.608Z,26.63
2022-07-29T14:59:32.279Z,26.66
2022-07-29T15:01:59.215Z,26.68
2022-07-29T15:04:26.769Z,26.78
2022-07-29T15:06:53.276Z,26.79
2022-07-29T15:09:19.840Z,27.05
2022-07-29T15:11:46.390Z,27.01
2022-07-29T15:14:12.927Z,27.12
2022-07-29T15:16:43.603Z,27.29
2022-07-29T15:19:13.289Z,27.53
2022-07-29T15:21:47.903Z,27.50
2022-07-29T15:24:26.805Z,26.69
2022-07-29T15:26:53.338Z,26.80
2022-07-29T15:29:20.016Z,26.72
2022-07-29T15:31:46.647Z,26.17
2022-07-29T15:34:13.385Z,26.18
2022-07-29T15:36:52.053Z,25.96
2022-07-29T15:39:21.074Z,26.47
2022-07-29T15:41:47.751Z,26.17
2022-07-29T15:44:14.457Z,26.27
2022-07-29T15:47:00.714Z,26.37
2022-07-29T15:49:48.309Z,26.56
2022-07-29T15:52:19.079Z,26.05
2022-07-29T15:54:51.994Z,26.24
2022-07-29T15:57:18.619Z,26.72
2022-07-29T15:59:45.293Z,26.50
2022-07-29T16:02:11.962Z,26.87
2022-07-29T16:04:38.836Z,26.56
2022-07-29T16:07:05.813Z,27.07
2022-07-29T16:09:32.347Z,27.76
2022-07-29T16:11:59.625Z,27.38
2022-07-29T16:14:28.296Z,26.88
2022-07-29T16:16:56.775Z,27.45
2022-07-29T16:19:23.737Z,27.16
2022-07-29T16:21:50.831Z,27.73
2022-07-29T16:24:18.223Z,27.91
2022-07-29T16:26:44.997Z,27.57
2022-07-29T16:29:11.779Z,27.47
2022-07-29T16:31:38.472Z,26.87
2022-07-29T16:34:05.090Z,26.87
2022-07-29T16:36:32.244Z,26.93
2022-07-29T16:38:59.681Z,27.57
2022-07-29T16:41:26.283Z,27.55
2022-07-29T16:43:53.000Z,27.64
2022-07-29T16:46:21.063Z,27.39
2022-07-29T16:48:50.459Z,26.78
2022-07-29T16:51:17.217Z,27.26
2022-07-29T16:53:44.969Z,27.04
2022-07-29T16:56:12.660Z,26.76
2022-07-29T16:58:43.722Z,26.78
2022-07-29T17:01:11.686Z,26.46
2022-07-29T17:04:00.243Z,26.08
2022-07-29T17:06:28.688Z,26.18
2022-07-29T17:08:56.548Z,26.22
2022-07-29T17:11:23.118Z,26.34
2022-07-29T17:14:10.444Z,26.30
2022-07-29T17:16:37.120Z,26.15
2022-07-29T17:19:04.678Z,25.87
2022-07-29T17:21:31.261Z,25.84
2022-07-29T17:23:59.293Z,25.96
2022-07-29T17:26:27.445Z,25.74
2022-07-29T17:28:55.373Z,26.00
2022-07-29T17:31:24.674Z,25.80
2022-07-29T17:33:57.116Z,25.70
2022-07-29T17:36:28.974Z,25.47
2022-07-29T17:38:57.889Z,25.67
2022-07-29T17:41:26.161Z,25.63
2022-07-29T17:43:53.457Z,25.65
2022-07-29T17:46:24.651Z,25.76
2022-07-29T17:48:51.501Z,25.94
2022-07-29T17:51:18.140Z,25.78
2022-07-29T17:53:44.706Z,25.77
2022-07-29T17:56:11.373Z,25.66
2022-07-29T17:58:39.416Z,25.71
2022-07-29T18:01:06.061Z,25.44
2022-07-29T18:03:32.830Z,25.27
2022-07-29T18:06:00.679Z,25.48
2022-07-29T18:08:27.808Z,25.47
2022-07-29T18:10:54.554Z,26.23
2022-07-29T18:13:23.957Z,26.72
2022-07-29T18:15:50.963Z,27.50
2022-07-29T18:18:18.550Z,26.77
2022-07-29T18:20:46.410Z,26.20
2022-07-29T18:23:14.628Z,25.60
2022-07-29T18:25:41.192Z,25.48
2022-07-29T18:28:07.959Z,25.33
2022-07-29T18:30:37.564Z,25.46
2022-07-29T18:33:22.682Z,25.35
2022-07-29T18:35:52.451Z,25.21
2022-07-29T18:38:38.201Z,25.11
2022-07-29T18:41:04.827Z,25.07
2022-07-29T18:43:31.501Z,24.96
2022-07-29T18:45:58.180Z,25.01
2022-07-29T18:48:25.204Z,24.97
2022-07-29T18:50:54.769Z,24.98
2022-07-29T18:53:22.240Z,25.00
2022-07-29T18:55:48.794Z,24.91
2022-07-29T18:58:15.380Z,24.82
2022-07-29T19:00:42.010Z,24.83
2022-07-29T19:03:09.987Z,24.85
2022-07-29T19:05:36.700Z,24.82
2022-07-29T19:08:03.541Z,24.78
2022-07-29T19:10:30.605Z,24.64
2022-07-29T19:12:57.908Z,24.68
2022-07-29T19:15:24.922Z,24.63
2022-07-29T19:17:52.254Z,24.60
2022-07-29T19:20:18.903Z,24.47
2022-07-29T19:22:46.591Z,24.60
2022-07-29T19:25:13.402Z,24.60
2022-07-29T19:27:41.815Z,24.45
2022-07-29T19:30:10.222Z,24.43
2022-07-29T19:32:37.318Z,24.38
2022-07-29T19:35:23.451Z,24.35
2022-07-29T19:37:52.006Z,24.21
2022-07-29T19:40:18.713Z,24.14
2022-07-29T19:42:45.655Z,24.09
2022-07-29T19:45:12.502Z,24.12
2022-07-29T19:47:39.158Z,24.04
2022-07-29T19:50:06.748Z,24.05
2022-07-29T19:52:33.542Z,24.03
2022-07-29T19:55:05.249Z,24.01
2022-07-29T19:57:40.808Z,23.95
2022-07-29T20:00:11.724Z,23.93
2022-07-29T20:02:40.296Z,23.93
2022-07-29T20:05:08.041Z,23.85
2022-07-29T20:07:34.917Z,23.83
2022-07-29T20:10:01.608Z,23.81
2022-07-29T20:12:28.235Z,23.88
2022-07-29T20:14:54.890Z,23.88
2022-07-29T20:17:24.351Z,23.82
2022-07-29T20:19:52.902Z,23.76
2022-07-29T20:22:21.525Z,23.70
2022-07-29T20:24:49.928Z,23.77
2022-07-29T20:27:16.551Z,23.74
2022-07-29T20:29:43.431Z,23.66
2022-07-29T20:32:12.202Z,23.72
2022-07-29T20:34:41.990Z,23.57
2022-07-29T20:37:14.926Z,23.63
2022-07-29T20:39:46.360Z,23.50
2022-07-29T20:42:13.146Z,23.51
2022-07-29T20:44:40.680Z,23.47
2022-07-29T20:47:07.337Z,23.48
2022-07-29T20:49:36.215Z,23.42
2022-07-29T20:52:03.849Z,23.29
2022-07-29T20:54:30.593Z,23.33
2022-07-29T20:56:57.975Z,23.35
2022-07-29T20:59:24.779Z,23.30
2022-07-29T21:01:55.525Z,23.26
2022-07-29T21:04:22.430Z,23.21
2022-07-29T21:06:58.036Z,23.32
2022-07-29T21:09:24.836Z,23.25
2022-07-29T21:11:51.990Z,23.24
2022-07-29T21:14:47.578Z,23.26
2022-07-29T21:17:19.436Z,23.27
2022-07-29T21:19:51.006Z,23.15
2022-07-29T21:22:18.828Z,23.12
2022-07-29T21:24:46.132Z,23.03
2022-07-29T21:27:31.271Z,23.10
2022-07-29T21:29:57.801Z,23.16
2022-07-29T21:32:27.582Z,23.09
2022-07-29T21:34:57.377Z,23.10
2022-07-29T21:37:24.008Z,23.10
2022-07-29T21:39:50.997Z,22.96
2022-07-29T21:42:18.922Z,23.03
2022-07-29T21:44:45.536Z,22.97
2022-07-29T21:47:12.201Z,22.95
2022-07-29T21:49:39.254Z,22.92
2022-07-29T21:52:06.574Z,22.90
2022-07-29T21:54:37.033Z,22.91
2022-07-29T21:57:04.672Z,22.88
2022-07-29T21:59:31.856Z,22.93
2022-07-29T22:02:00.950Z,22.89
2022-07-29T22:04:31.411Z,22.86
2022-07-29T22:06:58.843Z,22.85
2022-07-29T22:09:25.883Z,22.83
2022-07-29T22:11:53.004Z,22.94
2022-07-29T22:14:21.649Z,22.87
2022-07-29T22:16:48.458Z,22.81
2022-07-29T22:19:15.532Z,22.82
2022-07-29T22:21:42.884Z,22.79
2022-07-29T22:24:10.662Z,22.81
2022-07-29T22:26:38.425Z,22.82
2022-07-29T22:29:05.770Z,22.75
2022-07-29T22:31:32.493Z,22.89
2022-07-29T22:33:59.086Z,22.77
2022-07-29T22:36:26.980Z,22.75
2022-07-29T22:38:56.470Z,22.63
2022-07-29T22:41:22.966Z,22.60
2022-07-29T22:43:50.068Z,22.62
2022-07-29T22:46:16.946Z,22.59
2022-07-29T22:48:43.632Z,22.54
2022-07-29T22:51:10.249Z,22.54
2022-07-29T22:53:36.840Z,22.68
2022-07-29T22:56:03.820Z,22.58
2022-07-29T22:58:30.652Z,22.57
2022-07-29T23:00:57.246Z,22.60
2022-07-29T23:03:24.026Z,22.60
2022-07-29T23:05:53.071Z,22.63
2022-07-29T23:08:19.967Z,22.58
2022-07-29T23:10:47.064Z,22.59
2022-07-29T23:13:13.922Z,22.61
2022-07-29T23:15:40.899Z,22.64
2022-07-29T23:18:07.464Z,22.68
2022-07-29T23:20:34.182Z,22.62
2022-07-29T23:23:00.905Z,22.62
2022-07-29T23:25:27.599Z,22.67
2022-07-29T23:27:54.161Z,22.66
2022-07-29T23:30:21.197Z,22.68
2022-07-29T23:32:47.794Z,22.69
2022-07-29T23:35:14.342Z,22.66
2022-07-29T23:37:40.893Z,22.62
2022-07-29T23:40:13.685Z,22.68
2022-07-29T23:42:42.339Z,22.71
2022-07-29T23:45:10.009Z,22.65
2022-07-29T23:47:36.740Z,22.68
2022-07-29T23:50:04.735Z,22.69
2022-07-29T23:52:31.344Z,22.57
2022-07-29T23:55:36.742Z,22.64
2022-07-29T23:57:44.568Z,22.66
